sensor_id;sensor_type;location;lat;lon;timestamp;P1;durP1;ratioP1;P2;durP2;ratioP2
82930;SDS011;72705;53.346;10.248;2023-11-22T00:01:13;25.80;;;9.98;;
82930;SDS011;72705;53.346;10.248;2023-11-22T00:03:40;28.33;;;9.50;;
82930;SDS011;72705;53.346;10.248;2023-11-22T00:06:05;26.25;;;8.40;;
82930;SDS011;72705;53.346;10.248;2023-11-22T00:08:32;26.85;;;9.77;;
82930;SDS011;72705;53.346;10.248;2023-11-22T00:10:58;28.73;;;8.98;;
82930;SDS011;72705;53.346;10.248;2023-11-22T00:13:25;30.48;;;9.90;;
82930;SDS011;72705;53.346;10.248;2023-11-22T00:15:50;31.10;;;9.32;;
82930;SDS011;72705;53.346;10.248;2023-11-22T00:18:16;24.35;;;8.90;;
82930;SDS011;72705;53.346;10.248;2023-11-22T00:20:41;18.80;;;7.88;;
82930;SDS011;72705;53.346;10.248;2023-11-22T00:23:07;19.77;;;8.13;;
82930;SDS011;72705;53.346;10.248;2023-11-22T00:25:34;27.30;;;10.63;;
82930;SDS011;72705;53.346;10.248;2023-11-22T00:27:59;20.52;;;7.95;;
82930;SDS011;72705;53.346;10.248;2023-11-22T00:30:25;21.65;;;7.40;;
82930;SDS011;72705;53.346;10.248;2023-11-22T00:32:50;20.57;;;7.70;;
82930;SDS011;72705;53.346;10.248;2023-11-22T00:35:16;24.63;;;8.10;;
82930;SDS011;72705;53.346;10.248;2023-11-22T00:37:42;23.10;;;8.87;;
82930;SDS011;72705;53.346;10.248;2023-11-22T00:40:07;26.83;;;8.20;;
82930;SDS011;72705;53.346;10.248;2023-11-22T00:42:39;21.05;;;8.30;;
82930;SDS011;72705;53.346;10.248;2023-11-22T00:45:07;26.33;;;8.32;;
82930;SDS011;72705;53.346;10.248;2023-11-22T00:47:35;20.73;;;7.28;;
82930;SDS011;72705;53.346;10.248;2023-11-22T00:50:05;17.45;;;6.88;;
82930;SDS011;72705;53.346;10.248;2023-11-22T00:52:32;25.90;;;7.38;;
82930;SDS011;72705;53.346;10.248;2023-11-22T00:55:00;18.85;;;7.05;;
82930;SDS011;72705;53.346;10.248;2023-11-22T00:57:27;22.38;;;8.93;;
82930;SDS011;72705;53.346;10.248;2023-11-22T01:00:04;21.75;;;8.57;;
82930;SDS011;72705;53.346;10.248;2023-11-22T01:02:31;24.20;;;7.53;;
82930;SDS011;72705;53.346;10.248;2023-11-22T01:04:57;24.73;;;8.02;;
82930;SDS011;72705;53.346;10.248;2023-11-22T01:07:23;23.60;;;8.25;;
82930;SDS011;72705;53.346;10.248;2023-11-22T01:09:48;26.20;;;8.97;;
82930;SDS011;72705;53.346;10.248;2023-11-22T01:12:13;23.30;;;8.63;;
82930;SDS011;72705;53.346;10.248;2023-11-22T01:14:40;23.10;;;7.60;;
82930;SDS011;72705;53.346;10.248;2023-11-22T01:17:05;24.10;;;8.65;;
82930;SDS011;72705;53.346;10.248;2023-11-22T01:19:31;24.27;;;8.35;;
82930;SDS011;72705;53.346;10.248;2023-11-22T01:22:00;21.30;;;8.15;;
82930;SDS011;72705;53.346;10.248;2023-11-22T01:24:25;20.70;;;7.35;;
82930;SDS011;72705;53.346;10.248;2023-11-22T01:27:00;20.00;;;7.93;;
82930;SDS011;72705;53.346;10.248;2023-11-22T01:29:26;22.85;;;8.05;;
82930;SDS011;72705;53.346;10.248;2023-11-22T01:31:51;27.52;;;10.05;;
82930;SDS011;72705;53.346;10.248;2023-11-22T01:34:17;21.65;;;7.25;;
82930;SDS011;72705;53.346;10.248;2023-11-22T01:36:43;20.15;;;7.38;;
82930;SDS011;72705;53.346;10.248;2023-11-22T01:39:10;17.02;;;7.85;;
82930;SDS011;72705;53.346;10.248;2023-11-22T01:41:37;22.00;;;7.57;;
82930;SDS011;72705;53.346;10.248;2023-11-22T01:44:03;25.02;;;7.50;;
82930;SDS011;72705;53.346;10.248;2023-11-22T01:46:28;19.17;;;8.75;;
82930;SDS011;72705;53.346;10.248;2023-11-22T01:48:54;24.10;;;9.63;;
82930;SDS011;72705;53.346;10.248;2023-11-22T01:51:23;27.02;;;9.50;;
82930;SDS011;72705;53.346;10.248;2023-11-22T01:53:50;28.15;;;9.18;;
82930;SDS011;72705;53.346;10.248;2023-11-22T01:56:20;32.33;;;8.25;;
82930;SDS011;72705;53.346;10.248;2023-11-22T01:58:47;18.52;;;8.57;;
82930;SDS011;72705;53.346;10.248;2023-11-22T02:01:15;23.30;;;8.98;;
82930;SDS011;72705;53.346;10.248;2023-11-22T02:03:40;23.83;;;8.73;;
82930;SDS011;72705;53.346;10.248;2023-11-22T02:06:06;27.88;;;8.77;;
82930;SDS011;72705;53.346;10.248;2023-11-22T02:08:34;27.15;;;9.43;;
82930;SDS011;72705;53.346;10.248;2023-11-22T02:11:00;24.50;;;8.82;;
82930;SDS011;72705;53.346;10.248;2023-11-22T02:13:30;28.17;;;9.85;;
82930;SDS011;72705;53.346;10.248;2023-11-22T02:15:55;29.30;;;10.68;;
82930;SDS011;72705;53.346;10.248;2023-11-22T02:18:28;26.98;;;8.68;;
82930;SDS011;72705;53.346;10.248;2023-11-22T02:20:54;31.23;;;10.73;;
82930;SDS011;72705;53.346;10.248;2023-11-22T02:23:20;28.02;;;9.55;;
82930;SDS011;72705;53.346;10.248;2023-11-22T02:25:45;27.13;;;9.85;;
82930;SDS011;72705;53.346;10.248;2023-11-22T02:28:11;22.65;;;8.55;;
82930;SDS011;72705;53.346;10.248;2023-11-22T02:30:37;28.17;;;8.80;;
82930;SDS011;72705;53.346;10.248;2023-11-22T02:33:03;27.25;;;10.27;;
82930;SDS011;72705;53.346;10.248;2023-11-22T02:35:29;30.10;;;9.48;;
82930;SDS011;72705;53.346;10.248;2023-11-22T02:37:56;32.38;;;10.63;;
82930;SDS011;72705;53.346;10.248;2023-11-22T02:40:22;38.72;;;9.85;;
82930;SDS011;72705;53.346;10.248;2023-11-22T02:42:48;27.55;;;9.30;;
82930;SDS011;72705;53.346;10.248;2023-11-22T02:45:15;28.60;;;9.50;;
82930;SDS011;72705;53.346;10.248;2023-11-22T02:47:42;23.08;;;8.43;;
82930;SDS011;72705;53.346;10.248;2023-11-22T02:50:09;25.55;;;9.23;;
82930;SDS011;72705;53.346;10.248;2023-11-22T02:52:36;19.50;;;8.63;;
82930;SDS011;72705;53.346;10.248;2023-11-22T02:55:02;23.67;;;8.45;;
82930;SDS011;72705;53.346;10.248;2023-11-22T02:57:30;19.52;;;7.75;;
82930;SDS011;72705;53.346;10.248;2023-11-22T02:59:59;24.17;;;8.45;;
82930;SDS011;72705;53.346;10.248;2023-11-22T03:02:24;26.80;;;8.38;;
82930;SDS011;72705;53.346;10.248;2023-11-22T03:04:52;26.52;;;7.88;;
82930;SDS011;72705;53.346;10.248;2023-11-22T03:07:19;19.10;;;7.97;;
82930;SDS011;72705;53.346;10.248;2023-11-22T03:10:03;19.13;;;7.85;;
82930;SDS011;72705;53.346;10.248;2023-11-22T03:12:30;21.63;;;8.45;;
82930;SDS011;72705;53.346;10.248;2023-11-22T03:14:59;22.42;;;8.32;;
82930;SDS011;72705;53.346;10.248;2023-11-22T03:17:28;19.65;;;7.93;;
82930;SDS011;72705;53.346;10.248;2023-11-22T03:19:54;22.45;;;8.52;;
82930;SDS011;72705;53.346;10.248;2023-11-22T03:22:24;23.05;;;8.13;;
82930;SDS011;72705;53.346;10.248;2023-11-22T03:24:50;19.58;;;8.00;;
82930;SDS011;72705;53.346;10.248;2023-11-22T03:27:24;28.13;;;9.98;;
82930;SDS011;72705;53.346;10.248;2023-11-22T03:29:51;24.83;;;8.35;;
82930;SDS011;72705;53.346;10.248;2023-11-22T03:32:16;27.50;;;9.32;;
82930;SDS011;72705;53.346;10.248;2023-11-22T03:34:42;19.15;;;7.43;;
82930;SDS011;72705;53.346;10.248;2023-11-22T03:37:11;24.75;;;8.48;;
82930;SDS011;72705;53.346;10.248;2023-11-22T03:39:44;23.70;;;8.70;;
82930;SDS011;72705;53.346;10.248;2023-11-22T03:42:39;30.77;;;8.77;;
82930;SDS011;72705;53.346;10.248;2023-11-22T03:45:15;21.98;;;8.50;;
82930;SDS011;72705;53.346;10.248;2023-11-22T03:47:40;24.50;;;8.73;;
82930;SDS011;72705;53.346;10.248;2023-11-22T03:50:11;24.15;;;8.75;;
82930;SDS011;72705;53.346;10.248;2023-11-22T03:52:46;25.37;;;8.37;;
82930;SDS011;72705;53.346;10.248;2023-11-22T03:55:26;24.35;;;8.60;;
82930;SDS011;72705;53.346;10.248;2023-11-22T03:58:06;19.92;;;8.63;;
82930;SDS011;72705;53.346;10.248;2023-11-22T04:00:32;20.50;;;8.10;;
82930;SDS011;72705;53.346;10.248;2023-11-22T04:06:25;19.58;;;8.18;;
82930;SDS011;72705;53.346;10.248;2023-11-22T04:09:15;18.95;;;8.95;;
82930;SDS011;72705;53.346;10.248;2023-11-22T04:12:04;29.02;;;9.40;;
82930;SDS011;72705;53.346;10.248;2023-11-22T04:14:31;26.40;;;9.70;;
82930;SDS011;72705;53.346;10.248;2023-11-22T04:16:56;22.92;;;8.98;;
82930;SDS011;72705;53.346;10.248;2023-11-22T04:19:23;27.47;;;9.13;;
82930;SDS011;72705;53.346;10.248;2023-11-22T04:21:48;22.52;;;8.35;;
82930;SDS011;72705;53.346;10.248;2023-11-22T04:24:14;27.67;;;8.95;;
82930;SDS011;72705;53.346;10.248;2023-11-22T04:26:45;22.60;;;9.38;;
82930;SDS011;72705;53.346;10.248;2023-11-22T04:29:11;27.40;;;10.32;;
82930;SDS011;72705;53.346;10.248;2023-11-22T04:31:39;27.77;;;10.98;;
82930;SDS011;72705;53.346;10.248;2023-11-22T04:34:12;29.08;;;11.25;;
82930;SDS011;72705;53.346;10.248;2023-11-22T04:36:52;34.67;;;11.60;;
82930;SDS011;72705;53.346;10.248;2023-11-22T04:55:28;28.65;;;10.07;;
82930;SDS011;72705;53.346;10.248;2023-11-22T04:57:54;32.97;;;10.75;;
82930;SDS011;72705;53.346;10.248;2023-11-22T05:00:21;34.00;;;11.35;;
82930;SDS011;72705;53.346;10.248;2023-11-22T05:02:50;28.17;;;10.35;;
82930;SDS011;72705;53.346;10.248;2023-11-22T05:05:25;37.78;;;11.75;;
82930;SDS011;72705;53.346;10.248;2023-11-22T05:08:03;35.47;;;11.15;;
82930;SDS011;72705;53.346;10.248;2023-11-22T05:10:29;33.88;;;11.23;;
82930;SDS011;72705;53.346;10.248;2023-11-22T05:12:54;26.77;;;11.13;;
82930;SDS011;72705;53.346;10.248;2023-11-22T05:15:26;31.30;;;11.18;;
82930;SDS011;72705;53.346;10.248;2023-11-22T05:17:57;33.95;;;11.60;;
82930;SDS011;72705;53.346;10.248;2023-11-22T05:20:41;23.02;;;10.07;;
82930;SDS011;72705;53.346;10.248;2023-11-22T05:23:52;30.38;;;9.95;;
82930;SDS011;72705;53.346;10.248;2023-11-22T05:26:23;31.25;;;11.88;;
82930;SDS011;72705;53.346;10.248;2023-11-22T05:29:04;42.28;;;11.60;;
82930;SDS011;72705;53.346;10.248;2023-11-22T05:35:04;35.92;;;11.80;;
82930;SDS011;72705;53.346;10.248;2023-11-22T05:44:47;32.17;;;10.35;;
82930;SDS011;72705;53.346;10.248;2023-11-22T05:50:39;25.92;;;9.65;;
82930;SDS011;72705;53.346;10.248;2023-11-22T05:56:26;41.17;;;13.35;;
82930;SDS011;72705;53.346;10.248;2023-11-22T05:58:58;33.10;;;11.40;;
82930;SDS011;72705;53.346;10.248;2023-11-22T06:01:26;34.13;;;11.70;;
82930;SDS011;72705;53.346;10.248;2023-11-22T06:04:06;28.17;;;10.43;;
82930;SDS011;72705;53.346;10.248;2023-11-22T06:06:38;33.25;;;11.80;;
82930;SDS011;72705;53.346;10.248;2023-11-22T06:09:33;29.80;;;10.45;;
82930;SDS011;72705;53.346;10.248;2023-11-22T06:12:05;33.90;;;11.98;;
82930;SDS011;72705;53.346;10.248;2023-11-22T06:14:31;37.65;;;13.13;;
82930;SDS011;72705;53.346;10.248;2023-11-22T06:16:59;33.30;;;12.25;;
82930;SDS011;72705;53.346;10.248;2023-11-22T06:19:24;39.53;;;11.82;;
82930;SDS011;72705;53.346;10.248;2023-11-22T06:21:50;33.50;;;11.60;;
82930;SDS011;72705;53.346;10.248;2023-11-22T06:24:15;32.40;;;12.23;;
82930;SDS011;72705;53.346;10.248;2023-11-22T06:26:44;32.28;;;12.13;;
82930;SDS011;72705;53.346;10.248;2023-11-22T06:29:11;26.85;;;10.77;;
82930;SDS011;72705;53.346;10.248;2023-11-22T06:31:37;36.72;;;11.20;;
82930;SDS011;72705;53.346;10.248;2023-11-22T06:34:02;30.17;;;10.67;;
82930;SDS011;72705;53.346;10.248;2023-11-22T06:36:28;23.02;;;10.40;;
82930;SDS011;72705;53.346;10.248;2023-11-22T06:38:57;31.38;;;10.10;;
82930;SDS011;72705;53.346;10.248;2023-11-22T06:44:21;34.53;;;11.93;;
82930;SDS011;72705;53.346;10.248;2023-11-22T06:50:47;30.05;;;10.02;;
82930;SDS011;72705;53.346;10.248;2023-11-22T06:53:28;25.45;;;10.18;;
82930;SDS011;72705;53.346;10.248;2023-11-22T06:59:26;29.77;;;11.07;;
82930;SDS011;72705;53.346;10.248;2023-11-22T07:05:15;28.33;;;10.10;;
82930;SDS011;72705;53.346;10.248;2023-11-22T07:08:34;32.85;;;10.35;;
82930;SDS011;72705;53.346;10.248;2023-11-22T07:18:32;31.65;;;11.07;;
82930;SDS011;72705;53.346;10.248;2023-11-22T07:21:44;30.65;;;10.68;;
82930;SDS011;72705;53.346;10.248;2023-11-22T07:24:48;36.60;;;12.25;;
82930;SDS011;72705;53.346;10.248;2023-11-22T07:28:15;38.58;;;12.95;;
82930;SDS011;72705;53.346;10.248;2023-11-22T07:31:34;47.05;;;13.20;;
82930;SDS011;72705;53.346;10.248;2023-11-22T07:38:04;32.20;;;11.18;;
82930;SDS011;72705;53.346;10.248;2023-11-22T07:44:25;33.03;;;11.00;;
82930;SDS011;72705;53.346;10.248;2023-11-22T07:46:53;33.95;;;12.20;;
82930;SDS011;72705;53.346;10.248;2023-11-22T07:49:25;36.45;;;11.45;;
82930;SDS011;72705;53.346;10.248;2023-11-22T07:51:50;37.30;;;10.93;;
82930;SDS011;72705;53.346;10.248;2023-11-22T07:54:23;31.40;;;10.82;;
82930;SDS011;72705;53.346;10.248;2023-11-22T08:03:59;30.40;;;11.45;;
82930;SDS011;72705;53.346;10.248;2023-11-22T08:07:20;29.48;;;10.55;;
82930;SDS011;72705;53.346;10.248;2023-11-22T08:31:23;29.13;;;10.65;;
82930;SDS011;72705;53.346;10.248;2023-11-22T08:44:11;43.92;;;13.88;;
82930;SDS011;72705;53.346;10.248;2023-11-22T08:46:36;35.97;;;15.38;;
82930;SDS011;72705;53.346;10.248;2023-11-22T08:49:01;32.15;;;11.32;;
82930;SDS011;72705;53.346;10.248;2023-11-22T08:51:27;32.00;;;12.98;;
82930;SDS011;72705;53.346;10.248;2023-11-22T08:53:52;29.30;;;10.73;;
82930;SDS011;72705;53.346;10.248;2023-11-22T08:56:18;35.70;;;12.60;;
82930;SDS011;72705;53.346;10.248;2023-11-22T08:58:45;44.08;;;13.88;;
82930;SDS011;72705;53.346;10.248;2023-11-22T09:01:10;47.47;;;15.97;;
82930;SDS011;72705;53.346;10.248;2023-11-22T09:03:35;47.38;;;16.00;;
82930;SDS011;72705;53.346;10.248;2023-11-22T09:06:03;35.95;;;13.88;;
82930;SDS011;72705;53.346;10.248;2023-11-22T09:08:29;28.40;;;10.90;;
82930;SDS011;72705;53.346;10.248;2023-11-22T09:10:55;34.28;;;12.05;;
82930;SDS011;72705;53.346;10.248;2023-11-22T09:13:20;40.08;;;13.38;;
82930;SDS011;72705;53.346;10.248;2023-11-22T09:15:47;32.35;;;12.45;;
82930;SDS011;72705;53.346;10.248;2023-11-22T09:18:12;34.37;;;12.67;;
82930;SDS011;72705;53.346;10.248;2023-11-22T09:20:38;33.60;;;12.50;;
82930;SDS011;72705;53.346;10.248;2023-11-22T09:23:04;33.35;;;12.50;;
82930;SDS011;72705;53.346;10.248;2023-11-22T09:25:29;31.80;;;13.20;;
82930;SDS011;72705;53.346;10.248;2023-11-22T09:27:56;25.95;;;10.25;;
82930;SDS011;72705;53.346;10.248;2023-11-22T09:30:29;26.40;;;10.73;;
82930;SDS011;72705;53.346;10.248;2023-11-22T09:33:14;28.27;;;10.73;;
82930;SDS011;72705;53.346;10.248;2023-11-22T09:35:41;31.50;;;11.18;;
82930;SDS011;72705;53.346;10.248;2023-11-22T09:38:09;26.25;;;10.63;;
82930;SDS011;72705;53.346;10.248;2023-11-22T09:40:39;37.00;;;12.65;;
82930;SDS011;72705;53.346;10.248;2023-11-22T09:43:08;27.70;;;11.13;;
82930;SDS011;72705;53.346;10.248;2023-11-22T09:45:34;31.20;;;11.32;;
82930;SDS011;72705;53.346;10.248;2023-11-22T09:48:00;31.20;;;11.82;;
82930;SDS011;72705;53.346;10.248;2023-11-22T09:56:14;25.98;;;10.85;;
82930;SDS011;72705;53.346;10.248;2023-11-22T09:58:40;25.88;;;10.13;;
82930;SDS011;72705;53.346;10.248;2023-11-22T10:01:13;25.17;;;10.52;;
82930;SDS011;72705;53.346;10.248;2023-11-22T10:03:38;26.60;;;10.52;;
82930;SDS011;72705;53.346;10.248;2023-11-22T10:06:04;25.52;;;9.95;;
82930;SDS011;72705;53.346;10.248;2023-11-22T10:08:30;25.40;;;9.40;;
82930;SDS011;72705;53.346;10.248;2023-11-22T10:10:57;30.15;;;10.18;;
82930;SDS011;72705;53.346;10.248;2023-11-22T10:13:23;24.52;;;9.90;;
82930;SDS011;72705;53.346;10.248;2023-11-22T10:15:48;24.92;;;9.90;;
82930;SDS011;72705;53.346;10.248;2023-11-22T10:18:14;28.85;;;11.48;;
82930;SDS011;72705;53.346;10.248;2023-11-22T10:20:40;87.15;;;26.70;;
82930;SDS011;72705;53.346;10.248;2023-11-22T10:23:10;46.80;;;16.08;;
82930;SDS011;72705;53.346;10.248;2023-11-22T10:25:44;33.40;;;13.10;;
82930;SDS011;72705;53.346;10.248;2023-11-22T10:28:09;28.92;;;11.30;;
82930;SDS011;72705;53.346;10.248;2023-11-22T10:30:35;29.48;;;11.43;;
82930;SDS011;72705;53.346;10.248;2023-11-22T10:33:00;23.45;;;9.00;;
82930;SDS011;72705;53.346;10.248;2023-11-22T10:35:37;23.92;;;8.82;;
82930;SDS011;72705;53.346;10.248;2023-11-22T10:38:02;22.60;;;9.20;;
82930;SDS011;72705;53.346;10.248;2023-11-22T10:40:31;23.50;;;8.30;;
82930;SDS011;72705;53.346;10.248;2023-11-22T10:42:56;21.13;;;9.40;;
82930;SDS011;72705;53.346;10.248;2023-11-22T10:45:26;27.67;;;8.82;;
82930;SDS011;72705;53.346;10.248;2023-11-22T10:47:59;20.67;;;8.52;;
82930;SDS011;72705;53.346;10.248;2023-11-22T10:50:30;22.08;;;8.43;;
82930;SDS011;72705;53.346;10.248;2023-11-22T10:52:56;23.00;;;9.82;;
82930;SDS011;72705;53.346;10.248;2023-11-22T10:55:26;22.67;;;9.65;;
82930;SDS011;72705;53.346;10.248;2023-11-22T10:57:52;21.88;;;9.60;;
82930;SDS011;72705;53.346;10.248;2023-11-22T11:00:21;23.50;;;9.05;;
82930;SDS011;72705;53.346;10.248;2023-11-22T11:02:51;19.73;;;8.20;;
82930;SDS011;72705;53.346;10.248;2023-11-22T11:05:30;22.17;;;9.15;;
82930;SDS011;72705;53.346;10.248;2023-11-22T11:08:07;24.60;;;8.85;;
82930;SDS011;72705;53.346;10.248;2023-11-22T11:10:42;23.63;;;7.78;;
82930;SDS011;72705;53.346;10.248;2023-11-22T11:13:09;19.63;;;7.35;;
82930;SDS011;72705;53.346;10.248;2023-11-22T11:15:35;23.55;;;9.27;;
82930;SDS011;72705;53.346;10.248;2023-11-22T11:18:03;24.55;;;8.52;;
82930;SDS011;72705;53.346;10.248;2023-11-22T11:20:44;16.67;;;7.47;;
82930;SDS011;72705;53.346;10.248;2023-11-22T11:26:16;16.50;;;6.57;;
82930;SDS011;72705;53.346;10.248;2023-11-22T11:28:44;14.48;;;6.03;;
82930;SDS011;72705;53.346;10.248;2023-11-22T11:31:12;16.02;;;6.93;;
82930;SDS011;72705;53.346;10.248;2023-11-22T11:36:21;19.13;;;8.07;;
82930;SDS011;72705;53.346;10.248;2023-11-22T11:38:54;26.48;;;9.38;;
82930;SDS011;72705;53.346;10.248;2023-11-22T11:41:25;21.45;;;8.55;;
82930;SDS011;72705;53.346;10.248;2023-11-22T11:43:58;20.10;;;7.65;;
82930;SDS011;72705;53.346;10.248;2023-11-22T11:46:24;17.70;;;7.35;;
82930;SDS011;72705;53.346;10.248;2023-11-22T11:48:55;16.48;;;7.78;;
82930;SDS011;72705;53.346;10.248;2023-11-22T11:51:22;12.85;;;6.55;;
82930;SDS011;72705;53.346;10.248;2023-11-22T11:53:48;16.20;;;6.30;;
82930;SDS011;72705;53.346;10.248;2023-11-22T11:56:15;15.88;;;6.88;;
82930;SDS011;72705;53.346;10.248;2023-11-22T11:58:41;13.70;;;6.80;;
82930;SDS011;72705;53.346;10.248;2023-11-22T12:01:08;17.73;;;7.57;;
82930;SDS011;72705;53.346;10.248;2023-11-22T12:03:35;28.13;;;9.43;;
82930;SDS011;72705;53.346;10.248;2023-11-22T12:06:02;20.13;;;8.77;;
82930;SDS011;72705;53.346;10.248;2023-11-22T12:08:30;16.63;;;6.53;;
82930;SDS011;72705;53.346;10.248;2023-11-22T12:11:01;12.80;;;5.22;;
82930;SDS011;72705;53.346;10.248;2023-11-22T12:13:35;12.57;;;6.15;;
82930;SDS011;72705;53.346;10.248;2023-11-22T12:16:09;16.10;;;6.25;;
82930;SDS011;72705;53.346;10.248;2023-11-22T12:18:43;13.52;;;6.15;;
82930;SDS011;72705;53.346;10.248;2023-11-22T12:21:16;15.23;;;7.53;;
82930;SDS011;72705;53.346;10.248;2023-11-22T12:23:43;12.85;;;5.93;;
82930;SDS011;72705;53.346;10.248;2023-11-22T12:26:19;12.90;;;6.50;;
82930;SDS011;72705;53.346;10.248;2023-11-22T12:31:13;13.93;;;6.85;;
82930;SDS011;72705;53.346;10.248;2023-11-22T12:33:43;11.95;;;6.85;;
82930;SDS011;72705;53.346;10.248;2023-11-22T12:36:09;12.90;;;5.57;;
82930;SDS011;72705;53.346;10.248;2023-11-22T12:38:38;11.10;;;5.78;;
82930;SDS011;72705;53.346;10.248;2023-11-22T12:41:06;13.23;;;5.65;;
82930;SDS011;72705;53.346;10.248;2023-11-22T12:43:34;12.70;;;5.72;;
82930;SDS011;72705;53.346;10.248;2023-11-22T12:46:01;11.38;;;5.88;;
82930;SDS011;72705;53.346;10.248;2023-11-22T12:48:38;15.52;;;5.63;;
82930;SDS011;72705;53.346;10.248;2023-11-22T12:51:14;11.60;;;5.68;;
82930;SDS011;72705;53.346;10.248;2023-11-22T12:53:41;13.32;;;6.30;;
82930;SDS011;72705;53.346;10.248;2023-11-22T12:56:06;13.03;;;6.23;;
82930;SDS011;72705;53.346;10.248;2023-11-22T12:58:32;15.77;;;6.00;;
82930;SDS011;72705;53.346;10.248;2023-11-22T13:00:58;13.07;;;5.90;;
82930;SDS011;72705;53.346;10.248;2023-11-22T13:03:25;14.88;;;5.38;;
82930;SDS011;72705;53.346;10.248;2023-11-22T13:05:53;9.65;;;5.20;;
82930;SDS011;72705;53.346;10.248;2023-11-22T13:08:19;11.70;;;5.65;;
82930;SDS011;72705;53.346;10.248;2023-11-22T13:10:53;11.10;;;5.25;;
82930;SDS011;72705;53.346;10.248;2023-11-22T13:13:24;9.25;;;4.82;;
82930;SDS011;72705;53.346;10.248;2023-11-22T13:15:52;10.95;;;4.95;;
82930;SDS011;72705;53.346;10.248;2023-11-22T13:18:20;7.40;;;4.55;;
82930;SDS011;72705;53.346;10.248;2023-11-22T13:20:51;10.40;;;4.80;;
82930;SDS011;72705;53.346;10.248;2023-11-22T13:23:16;8.80;;;4.47;;
82930;SDS011;72705;53.346;10.248;2023-11-22T13:25:42;12.75;;;4.97;;
82930;SDS011;72705;53.346;10.248;2023-11-22T13:28:08;11.53;;;5.10;;
82930;SDS011;72705;53.346;10.248;2023-11-22T13:30:33;10.77;;;4.88;;
82930;SDS011;72705;53.346;10.248;2023-11-22T13:32:59;12.23;;;4.55;;
82930;SDS011;72705;53.346;10.248;2023-11-22T13:35:28;11.03;;;4.50;;
82930;SDS011;72705;53.346;10.248;2023-11-22T13:38:06;13.35;;;5.20;;
82930;SDS011;72705;53.346;10.248;2023-11-22T13:40:36;9.07;;;4.38;;
82930;SDS011;72705;53.346;10.248;2023-11-22T13:43:04;25.00;;;5.95;;
82930;SDS011;72705;53.346;10.248;2023-11-22T13:45:30;14.85;;;6.22;;
82930;SDS011;72705;53.346;10.248;2023-11-22T13:47:58;13.23;;;5.17;;
82930;SDS011;72705;53.346;10.248;2023-11-22T13:52:59;14.55;;;4.70;;
82930;SDS011;72705;53.346;10.248;2023-11-22T13:55:24;13.38;;;4.78;;
82930;SDS011;72705;53.346;10.248;2023-11-22T13:57:53;13.25;;;4.90;;
82930;SDS011;72705;53.346;10.248;2023-11-22T14:00:27;13.15;;;4.68;;
82930;SDS011;72705;53.346;10.248;2023-11-22T14:02:58;9.60;;;4.07;;
82930;SDS011;72705;53.346;10.248;2023-11-22T14:05:30;8.95;;;4.55;;
82930;SDS011;72705;53.346;10.248;2023-11-22T14:07:56;8.70;;;4.30;;
82930;SDS011;72705;53.346;10.248;2023-11-22T14:10:22;9.45;;;4.70;;
82930;SDS011;72705;53.346;10.248;2023-11-22T14:12:51;7.80;;;4.22;;
82930;SDS011;72705;53.346;10.248;2023-11-22T14:15:17;7.82;;;4.32;;
82930;SDS011;72705;53.346;10.248;2023-11-22T14:17:45;6.97;;;4.07;;
82930;SDS011;72705;53.346;10.248;2023-11-22T14:20:14;8.98;;;4.32;;
82930;SDS011;72705;53.346;10.248;2023-11-22T14:22:40;9.05;;;3.88;;
82930;SDS011;72705;53.346;10.248;2023-11-22T14:25:09;10.50;;;4.15;;
82930;SDS011;72705;53.346;10.248;2023-11-22T14:27:41;7.75;;;3.70;;
82930;SDS011;72705;53.346;10.248;2023-11-22T14:30:07;9.57;;;4.38;;
82930;SDS011;72705;53.346;10.248;2023-11-22T14:32:35;10.50;;;4.35;;
82930;SDS011;72705;53.346;10.248;2023-11-22T14:35:11;8.27;;;4.10;;
82930;SDS011;72705;53.346;10.248;2023-11-22T14:37:37;11.82;;;4.70;;
82930;SDS011;72705;53.346;10.248;2023-11-22T14:40:04;12.25;;;5.00;;
82930;SDS011;72705;53.346;10.248;2023-11-22T14:42:44;10.40;;;4.88;;
82930;SDS011;72705;53.346;10.248;2023-11-22T14:45:46;15.48;;;5.20;;
82930;SDS011;72705;53.346;10.248;2023-11-22T14:48:46;11.48;;;5.15;;
82930;SDS011;72705;53.346;10.248;2023-11-22T14:58:41;9.70;;;4.20;;
82930;SDS011;72705;53.346;10.248;2023-11-22T15:01:26;10.40;;;4.72;;
82930;SDS011;72705;53.346;10.248;2023-11-22T15:04:18;9.50;;;4.45;;
82930;SDS011;72705;53.346;10.248;2023-11-22T15:10:35;9.27;;;4.25;;
82930;SDS011;72705;53.346;10.248;2023-11-22T15:13:04;10.80;;;4.97;;
82930;SDS011;72705;53.346;10.248;2023-11-22T15:18:22;8.93;;;4.65;;
82930;SDS011;72705;53.346;10.248;2023-11-22T15:24:50;8.82;;;4.75;;
82930;SDS011;72705;53.346;10.248;2023-11-22T15:28:03;7.03;;;4.18;;
82930;SDS011;72705;53.346;10.248;2023-11-22T15:31:00;8.50;;;4.72;;
82930;SDS011;72705;53.346;10.248;2023-11-22T15:33:46;12.18;;;5.50;;
82930;SDS011;72705;53.346;10.248;2023-11-22T15:36:32;14.35;;;6.00;;
82930;SDS011;72705;53.346;10.248;2023-11-22T15:52:36;9.98;;;5.22;;
82930;SDS011;72705;53.346;10.248;2023-11-22T15:55:32;9.75;;;4.85;;
82930;SDS011;72705;53.346;10.248;2023-11-22T16:11:16;11.48;;;5.93;;
82930;SDS011;72705;53.346;10.248;2023-11-22T16:13:42;13.38;;;5.60;;
82930;SDS011;72705;53.346;10.248;2023-11-22T16:16:19;13.30;;;6.07;;
82930;SDS011;72705;53.346;10.248;2023-11-22T16:19:01;11.75;;;5.90;;
82930;SDS011;72705;53.346;10.248;2023-11-22T16:24:22;15.70;;;6.30;;
82930;SDS011;72705;53.346;10.248;2023-11-22T16:27:36;14.00;;;6.72;;
82930;SDS011;72705;53.346;10.248;2023-11-22T16:30:08;16.77;;;6.63;;
82930;SDS011;72705;53.346;10.248;2023-11-22T16:35:33;15.90;;;6.63;;
82930;SDS011;72705;53.346;10.248;2023-11-22T16:38:02;12.05;;;5.78;;
82930;SDS011;72705;53.346;10.248;2023-11-22T16:40:50;19.80;;;6.55;;
82930;SDS011;72705;53.346;10.248;2023-11-22T16:46:13;17.67;;;7.13;;
82930;SDS011;72705;53.346;10.248;2023-11-22T16:48:42;18.25;;;7.35;;
82930;SDS011;72705;53.346;10.248;2023-11-22T16:51:22;15.50;;;6.85;;
82930;SDS011;72705;53.346;10.248;2023-11-22T16:53:57;18.65;;;6.68;;
82930;SDS011;72705;53.346;10.248;2023-11-22T16:59:53;13.75;;;6.10;;
82930;SDS011;72705;53.346;10.248;2023-11-22T17:02:19;22.48;;;7.25;;
82930;SDS011;72705;53.346;10.248;2023-11-22T17:04:47;16.20;;;7.75;;
82930;SDS011;72705;53.346;10.248;2023-11-22T17:07:17;14.43;;;7.53;;
82930;SDS011;72705;53.346;10.248;2023-11-22T17:10:27;18.55;;;7.50;;
82930;SDS011;72705;53.346;10.248;2023-11-22T17:13:30;19.65;;;7.35;;
82930;SDS011;72705;53.346;10.248;2023-11-22T17:19:11;19.27;;;7.65;;
82930;SDS011;72705;53.346;10.248;2023-11-22T17:22:21;20.30;;;8.82;;
82930;SDS011;72705;53.346;10.248;2023-11-22T17:27:43;22.13;;;8.27;;
82930;SDS011;72705;53.346;10.248;2023-11-22T17:30:23;22.58;;;8.65;;
82930;SDS011;72705;53.346;10.248;2023-11-22T17:33:00;24.17;;;8.98;;
82930;SDS011;72705;53.346;10.248;2023-11-22T17:36:39;20.52;;;8.40;;
82930;SDS011;72705;53.346;10.248;2023-11-22T17:39:18;23.58;;;8.30;;
82930;SDS011;72705;53.346;10.248;2023-11-22T17:41:56;17.35;;;7.80;;
82930;SDS011;72705;53.346;10.248;2023-11-22T17:44:22;21.85;;;9.15;;
82930;SDS011;72705;53.346;10.248;2023-11-22T17:46:48;21.90;;;8.85;;